Allen, Michigan
Current Conditions -  °F | °C
As of 8:15 PM on Sunday 21 Dec 2014 (Local Time) from KJYM Reporting Station
Haze Haze  
Wind Chill: 23°   Ceiling: Unl
Heat Index: 30°   Visibility: 5mi
Dew Point: 27°   Wind: 7mph
Humidity: 90%   Direction: 140°SE
Pressure: 30.16"   Gusts: NA
Location:  41.96°N, 84.77°W
Report Text: KJYM 220115Z AUTO 14006KT 5SM BR CLR M01/M03 A3016 RMK AO2 T10131027
Loading
Personal Weather Stations






























Interactive Weather Map New forecast layout! Learn more

10-Day Weather Forecast

Advertisements
Track Severe Weather on mobile